createdAt,value
2022-09-02T00:00:46.500Z,2.60
2022-09-02T00:03:23.122Z,2.72
2022-09-02T00:06:35.387Z,2.22
2022-09-02T00:09:24.159Z,2.78
2022-09-02T00:12:02.822Z,2.55
2022-09-02T00:14:50.697Z,2.78
2022-09-02T00:17:29.811Z,2.90
2022-09-02T00:20:05.150Z,2.58
2022-09-02T00:22:40.617Z,2.60
2022-09-02T00:29:03.911Z,3.00
2022-09-02T00:32:09.837Z,2.92
2022-09-02T00:35:40.430Z,3.10
2022-09-02T00:38:31.500Z,3.10
2022-09-02T00:41:13.124Z,2.70
2022-09-02T00:43:53.444Z,2.70
2022-09-02T00:46:30.673Z,2.67
2022-09-02T00:49:10.121Z,2.60
2022-09-02T00:51:49.691Z,2.45
2022-09-02T00:54:28.828Z,2.95
2022-09-02T00:57:06.139Z,2.78
2022-09-02T00:59:51.931Z,2.75
2022-09-02T01:02:33.109Z,2.88
2022-09-02T01:05:12.811Z,2.80
2022-09-02T01:07:49.191Z,2.78
2022-09-02T01:10:26.715Z,2.50
2022-09-02T01:13:03.372Z,2.92
2022-09-02T01:15:42.260Z,2.80
2022-09-02T01:18:21.478Z,3.33
2022-09-02T01:21:00.488Z,2.45
2022-09-02T01:23:41.525Z,2.70
2022-09-02T01:26:18.064Z,2.83
2022-09-02T01:28:53.998Z,2.67
2022-09-02T01:31:29.757Z,2.85
2022-09-02T01:34:08.432Z,2.60
2022-09-02T01:36:47.622Z,2.83
2022-09-02T01:39:25.467Z,2.70
2022-09-02T01:42:02.313Z,2.88
2022-09-02T01:44:39.426Z,3.28
2022-09-02T01:47:14.946Z,2.92
2022-09-02T01:49:53.367Z,2.80
2022-09-02T01:52:33.077Z,2.92
2022-09-02T01:55:12.021Z,3.30
2022-09-02T01:57:47.565Z,3.00
2022-09-02T02:00:24.248Z,3.00
2022-09-02T02:02:59.300Z,2.83
2022-09-02T02:05:48.693Z,2.83
2022-09-02T02:08:29.521Z,2.63
2022-09-02T02:11:09.278Z,3.00
2022-09-02T02:13:44.828Z,2.90
2022-09-02T02:16:20.577Z,3.00
2022-09-02T02:18:56.487Z,3.03
2022-09-02T02:21:32.220Z,3.47
2022-09-02T02:24:08.191Z,2.53
2022-09-02T02:26:45.690Z,2.92
2022-09-02T02:29:21.717Z,2.80
2022-09-02T02:31:57.777Z,3.15
2022-09-02T02:34:33.377Z,3.15
2022-09-02T02:37:09.177Z,2.88
2022-09-02T02:39:45.423Z,2.70
2022-09-02T02:42:23.270Z,2.97
2022-09-02T02:44:59.039Z,3.15
2022-09-02T02:47:35.030Z,3.05
2022-09-02T02:50:16.211Z,2.72
2022-09-02T02:52:53.590Z,2.65
2022-09-02T02:55:30.625Z,2.70
2022-09-02T02:58:08.250Z,2.65
2022-09-02T03:00:44.232Z,2.63
2022-09-02T03:03:22.285Z,2.42
2022-09-02T03:06:01.958Z,2.50
2022-09-02T03:08:39.256Z,2.28
2022-09-02T03:11:16.238Z,2.15
2022-09-02T03:13:54.324Z,2.88
2022-09-02T03:16:30.047Z,2.78
2022-09-02T03:19:08.738Z,2.45
2022-09-02T03:21:44.438Z,2.13
2022-09-02T03:24:20.101Z,2.63
2022-09-02T03:26:55.756Z,2.40
2022-09-02T03:29:33.048Z,2.33
2022-09-02T03:32:08.890Z,2.30
2022-09-02T03:34:45.296Z,2.25
2022-09-02T03:37:21.066Z,2.30
2022-09-02T03:39:56.800Z,2.20
2022-09-02T03:42:32.356Z,2.40
2022-09-02T03:45:12.084Z,2.10
2022-09-02T03:47:53.082Z,2.08
2022-09-02T03:50:34.767Z,2.30
2022-09-02T03:53:23.258Z,2.13
2022-09-02T03:56:11.403Z,1.90
2022-09-02T03:58:49.278Z,2.10
2022-09-02T04:01:36.890Z,2.78
2022-09-02T04:04:13.627Z,2.13
2022-09-02T04:06:50.091Z,2.08
2022-09-02T04:09:26.046Z,2.15
2022-09-02T04:12:02.030Z,1.85
2022-09-02T04:14:38.098Z,1.95
2022-09-02T04:17:15.909Z,2.25
2022-09-02T04:19:54.281Z,2.17
2022-09-02T04:22:29.779Z,2.00
2022-09-02T04:25:07.848Z,1.90
2022-09-02T04:27:43.905Z,2.15
2022-09-02T04:30:20.249Z,2.00
2022-09-02T04:32:59.144Z,2.25
2022-09-02T04:35:37.639Z,2.10
2022-09-02T04:38:13.828Z,2.20
2022-09-02T04:40:51.389Z,2.08
2022-09-02T04:43:28.984Z,2.20
2022-09-02T04:46:04.815Z,2.10
2022-09-02T04:48:43.093Z,1.98
2022-09-02T04:51:21.415Z,1.98
2022-09-02T04:53:58.593Z,1.98
2022-09-02T04:56:34.024Z,1.77
2022-09-02T04:59:11.676Z,1.80
2022-09-02T05:01:51.987Z,2.10
2022-09-02T05:04:35.602Z,2.15
2022-09-02T05:07:32.845Z,2.00
2022-09-02T05:10:08.948Z,1.83
2022-09-02T05:12:48.807Z,1.60
2022-09-02T05:15:28.412Z,1.80
2022-09-02T05:18:04.551Z,1.60
2022-09-02T05:20:45.398Z,2.30
2022-09-02T05:23:21.809Z,1.98
2022-09-02T05:25:57.855Z,1.70
2022-09-02T05:28:34.798Z,2.38
2022-09-02T05:31:12.833Z,2.00
2022-09-02T05:33:50.020Z,1.80
2022-09-02T05:36:30.741Z,1.88
2022-09-02T05:39:06.989Z,2.00
2022-09-02T05:41:44.998Z,2.00
2022-09-02T05:44:20.522Z,2.00
2022-09-02T05:46:57.444Z,1.90
2022-09-02T05:49:33.315Z,2.03
2022-09-02T05:52:17.541Z,1.77
2022-09-02T05:54:56.849Z,1.70
2022-09-02T05:57:32.784Z,2.08
2022-09-02T06:00:17.745Z,2.00
2022-09-02T06:03:03.126Z,1.80
2022-09-02T06:05:44.324Z,2.05
2022-09-02T06:08:29.235Z,2.08
2022-09-02T06:11:07.264Z,2.72
2022-09-02T06:13:50.055Z,2.30
2022-09-02T06:16:28.067Z,2.35
2022-09-02T06:19:05.482Z,2.10
2022-09-02T06:21:43.998Z,1.92
2022-09-02T06:24:21.529Z,2.47
2022-09-02T06:26:59.455Z,1.88
2022-09-02T06:29:34.973Z,2.50
2022-09-02T06:32:10.809Z,2.22
2022-09-02T06:34:50.493Z,2.30
2022-09-02T06:37:26.766Z,1.75
2022-09-02T06:40:05.541Z,2.28
2022-09-02T06:42:40.999Z,1.90
2022-09-02T06:45:25.974Z,2.10
2022-09-02T06:48:03.539Z,1.95
2022-09-02T06:50:49.129Z,1.75
2022-09-02T06:53:24.413Z,1.70
2022-09-02T06:56:02.366Z,1.77
2022-09-02T06:58:38.301Z,2.22
2022-09-02T07:01:23.896Z,2.00
2022-09-02T07:04:15.880Z,1.70
2022-09-02T07:06:53.486Z,2.20
2022-09-02T07:09:35.059Z,1.80
2022-09-02T07:12:23.149Z,1.90
2022-09-02T07:15:13.031Z,2.13
2022-09-02T07:17:51.665Z,1.98
2022-09-02T07:20:39.867Z,1.60
2022-09-02T07:23:15.660Z,2.00
2022-09-02T07:25:52.024Z,1.75
2022-09-02T07:28:30.314Z,2.65
2022-09-02T07:31:06.173Z,2.10
2022-09-02T07:33:42.067Z,2.33
2022-09-02T07:36:18.373Z,2.45
2022-09-02T07:38:57.973Z,2.58
2022-09-02T07:41:34.734Z,2.33
2022-09-02T07:44:16.357Z,2.75
2022-09-02T07:46:52.694Z,2.97
2022-09-02T07:50:14.967Z,3.00
2022-09-02T07:52:25.298Z,2.42
2022-09-02T07:55:02.159Z,2.85
2022-09-02T07:57:38.691Z,2.40
2022-09-02T08:00:18.870Z,2.85
2022-09-02T08:02:59.448Z,2.88
2022-09-02T08:05:43.801Z,2.33
2022-09-02T08:08:25.495Z,2.30
2022-09-02T08:11:05.891Z,2.40
2022-09-02T08:13:45.196Z,2.33
2022-09-02T08:16:27.508Z,2.40
2022-09-02T08:19:04.013Z,2.88
2022-09-02T08:21:45.205Z,2.38
2022-09-02T08:24:28.691Z,2.78
2022-09-02T08:27:08.071Z,2.70
2022-09-02T08:29:44.573Z,2.78
2022-09-02T08:32:22.873Z,3.58
2022-09-02T08:34:58.860Z,2.90
2022-09-02T08:37:35.087Z,3.00
2022-09-02T08:40:18.821Z,3.08
2022-09-02T08:42:57.402Z,3.55
2022-09-02T08:45:36.181Z,3.42
2022-09-02T08:48:20.860Z,2.78
2022-09-02T08:51:03.360Z,3.20
2022-09-02T08:53:45.433Z,3.50
2022-09-02T08:56:22.418Z,3.55
2022-09-02T08:59:00.879Z,3.15
2022-09-02T09:01:46.202Z,2.90
2022-09-02T09:04:34.961Z,3.20
2022-09-02T09:07:28.494Z,3.20
2022-09-02T09:10:16.892Z,3.25
2022-09-02T09:13:54.386Z,3.67
2022-09-02T09:16:48.709Z,3.65
2022-09-02T09:19:35.784Z,3.40
2022-09-02T09:22:15.639Z,3.15
2022-09-02T09:24:56.025Z,3.13
2022-09-02T09:27:31.471Z,3.33
2022-09-02T09:30:12.848Z,3.40
2022-09-02T09:32:54.264Z,3.65
2022-09-02T09:35:32.376Z,2.95
2022-09-02T09:38:18.258Z,3.30
2022-09-02T09:40:53.933Z,3.08
2022-09-02T09:43:36.085Z,3.58
2022-09-02T09:46:32.339Z,2.90
2022-09-02T09:49:08.247Z,3.08
2022-09-02T09:52:00.287Z,2.85
2022-09-02T09:54:36.219Z,3.20
2022-09-02T09:57:35.842Z,3.08
2022-09-02T10:00:31.492Z,3.03
2022-09-02T10:03:12.815Z,2.90
2022-09-02T10:05:48.732Z,2.92
2022-09-02T10:08:33.257Z,2.95
2022-09-02T10:11:10.148Z,3.45
2022-09-02T10:14:06.545Z,2.50
2022-09-02T10:16:53.316Z,3.15
2022-09-02T10:19:36.030Z,3.10
2022-09-02T10:23:13.750Z,2.70
2022-09-02T10:26:07.814Z,2.53
2022-09-02T10:28:48.652Z,2.50
2022-09-02T10:31:37.297Z,2.45
2022-09-02T10:34:21.096Z,2.92
2022-09-02T10:37:09.985Z,2.90
2022-09-02T10:40:16.710Z,2.50
2022-09-02T10:43:05.208Z,3.05
2022-09-02T10:45:49.663Z,2.10
2022-09-02T10:48:38.414Z,2.90
2022-09-02T10:51:20.673Z,2.42
2022-09-02T10:54:13.598Z,2.50
2022-09-02T10:56:55.637Z,2.28
2022-09-02T10:59:37.414Z,2.30
2022-09-02T11:02:20.349Z,2.20
2022-09-02T11:05:03.083Z,2.10
2022-09-02T11:07:45.759Z,2.42
2022-09-02T11:10:25.679Z,2.30
2022-09-02T11:13:08.536Z,2.60
2022-09-02T11:16:13.635Z,2.50
2022-09-02T11:19:01.075Z,3.35
2022-09-02T11:21:58.080Z,3.03
2022-09-02T11:24:43.266Z,2.97
2022-09-02T11:27:41.583Z,2.65
2022-09-02T11:30:24.505Z,2.70
2022-09-02T11:33:17.860Z,2.50
2022-09-02T11:35:53.332Z,2.65
2022-09-02T11:38:41.128Z,2.65
2022-09-02T11:41:37.801Z,2.40
2022-09-02T11:44:52.854Z,2.75
2022-09-02T11:47:53.164Z,2.60
2022-09-02T11:50:44.976Z,2.60
2022-09-02T11:53:28.253Z,2.70
2022-09-02T11:56:09.536Z,2.60
2022-09-02T11:58:54.196Z,2.83
2022-09-02T12:01:33.908Z,3.05
2022-09-02T12:07:34.303Z,2.53
2022-09-02T12:10:29.083Z,2.78
2022-09-02T12:13:14.061Z,2.45
2022-09-02T12:16:43.046Z,2.92
2022-09-02T12:19:44.476Z,2.45
2022-09-02T12:22:45.239Z,2.22
2022-09-02T12:25:46.086Z,2.67
2022-09-02T12:28:33.992Z,2.70
2022-09-02T12:31:21.715Z,2.40
2022-09-02T12:34:02.299Z,2.60
2022-09-02T12:36:55.261Z,2.40
2022-09-02T12:40:03.147Z,2.75
2022-09-02T12:42:41.451Z,3.05
2022-09-02T12:45:29.940Z,2.53
2022-09-02T12:48:11.764Z,2.70
2022-09-02T12:51:07.407Z,2.40
2022-09-02T12:53:46.675Z,2.67
2022-09-02T12:56:28.518Z,2.63
2022-09-02T12:59:04.416Z,2.90
2022-09-02T13:01:48.360Z,2.60
2022-09-02T13:04:43.701Z,2.28
2022-09-02T13:07:50.912Z,2.70
2022-09-02T13:11:02.790Z,2.80
2022-09-02T13:14:10.983Z,2.53
2022-09-02T13:17:19.194Z,2.78
2022-09-02T13:20:41.263Z,2.40
2022-09-02T13:24:00.267Z,2.58
2022-09-02T13:27:12.146Z,2.60
2022-09-02T13:30:18.026Z,2.53
2022-09-02T13:33:04.278Z,2.70
2022-09-02T13:35:43.379Z,2.70
2022-09-02T13:38:30.448Z,2.88
2022-09-02T13:41:09.557Z,2.60
2022-09-02T13:44:11.883Z,2.90
2022-09-02T13:47:00.568Z,2.63
2022-09-02T13:49:56.854Z,2.75
2022-09-02T13:56:27.535Z,3.10
2022-09-02T13:59:09.181Z,2.35
2022-09-02T14:01:56.329Z,2.83
2022-09-02T14:04:41.528Z,2.50
2022-09-02T14:07:19.277Z,2.45
2022-09-02T14:10:05.485Z,2.45
2022-09-02T14:13:01.099Z,2.40
2022-09-02T14:15:48.584Z,2.50
2022-09-02T14:18:29.488Z,2.55
2022-09-02T14:21:22.979Z,2.40
2022-09-02T14:24:05.659Z,2.97
2022-09-02T14:26:47.231Z,2.15
2022-09-02T14:29:36.817Z,2.67
2022-09-02T14:32:18.106Z,3.08
2022-09-02T14:35:30.080Z,2.55
2022-09-02T14:38:36.688Z,2.40
2022-09-02T14:41:33.658Z,2.83
2022-09-02T14:44:28.642Z,2.58
2022-09-02T14:47:25.553Z,2.70
2022-09-02T14:53:16.903Z,2.05
2022-09-02T14:56:05.483Z,2.55
2022-09-02T14:58:53.297Z,2.95
2022-09-02T15:01:32.234Z,2.60
2022-09-02T15:04:14.593Z,3.10
2022-09-02T15:07:02.192Z,2.70
2022-09-02T15:09:43.263Z,2.35
2022-09-02T15:12:34.080Z,2.88
2022-09-02T15:15:12.921Z,2.67
2022-09-02T15:17:54.211Z,2.58
2022-09-02T15:20:56.468Z,2.35
2022-09-02T15:23:42.428Z,2.50
2022-09-02T15:26:21.279Z,2.50
2022-09-02T15:29:05.641Z,2.17
2022-09-02T15:31:50.012Z,2.25
2022-09-02T15:34:27.385Z,2.20
2022-09-02T15:37:05.804Z,1.95
2022-09-02T15:39:49.418Z,2.20
2022-09-02T15:42:25.579Z,2.22
2022-09-02T15:45:05.540Z,1.95
2022-09-02T15:47:43.025Z,2.00
2022-09-02T15:50:18.550Z,2.15
2022-09-02T15:52:57.548Z,2.13
2022-09-02T15:55:36.067Z,2.40
2022-09-02T15:58:11.975Z,1.65
2022-09-02T16:00:49.411Z,2.00
2022-09-02T16:03:24.982Z,1.88
2022-09-02T16:06:06.920Z,1.80
2022-09-02T16:08:43.207Z,2.20
2022-09-02T16:11:19.175Z,2.40
2022-09-02T16:13:55.140Z,2.13
2022-09-02T16:16:32.600Z,2.33
2022-09-02T16:19:09.159Z,2.28
2022-09-02T16:21:46.483Z,2.30
2022-09-02T16:24:23.203Z,2.35
2022-09-02T16:27:05.504Z,2.20
2022-09-02T16:29:41.238Z,1.88
2022-09-02T16:32:27.334Z,2.20
2022-09-02T16:35:03.474Z,2.65
2022-09-02T16:37:39.288Z,2.10
2022-09-02T16:40:22.843Z,2.00
2022-09-02T16:42:58.616Z,2.17
2022-09-02T16:45:33.148Z,2.15
2022-09-02T16:48:10.634Z,2.28
2022-09-02T16:50:45.806Z,2.15
2022-09-02T16:53:21.487Z,2.00
2022-09-02T16:55:56.810Z,1.90
2022-09-02T16:58:33.540Z,2.03
2022-09-02T17:01:13.377Z,2.20
2022-09-02T17:03:51.201Z,1.92
2022-09-02T17:06:27.043Z,2.15
2022-09-02T17:09:03.840Z,2.13
2022-09-02T17:11:41.468Z,2.00
2022-09-02T17:14:18.453Z,2.22
2022-09-02T17:16:55.755Z,2.40
2022-09-02T17:19:34.802Z,2.60
2022-09-02T17:22:10.938Z,2.00
2022-09-02T17:24:46.655Z,2.55
2022-09-02T17:27:24.126Z,2.03
2022-09-02T17:30:01.642Z,2.25
2022-09-02T17:32:37.157Z,2.67
2022-09-02T17:35:16.205Z,2.20
2022-09-02T17:37:51.653Z,2.85
2022-09-02T17:40:42.901Z,2.53
2022-09-02T17:43:19.127Z,2.20
2022-09-02T17:45:56.649Z,1.95
2022-09-02T17:48:41.773Z,2.10
2022-09-02T17:51:22.947Z,1.90
2022-09-02T17:54:02.120Z,1.67
2022-09-02T17:57:06.696Z,1.80
2022-09-02T18:00:02.115Z,2.10
2022-09-02T18:03:22.431Z,2.28
2022-09-02T18:06:23.430Z,1.98
2022-09-02T18:09:03.018Z,2.33
2022-09-02T18:11:39.055Z,2.30
2022-09-02T18:14:23.552Z,1.92
2022-09-02T18:17:09.714Z,1.90
2022-09-02T18:20:01.641Z,2.00
2022-09-02T18:23:11.664Z,1.80
2022-09-02T18:25:55.712Z,2.05
2022-09-02T18:28:49.666Z,2.00
2022-09-02T18:31:39.593Z,1.70
2022-09-02T18:34:32.800Z,2.13
2022-09-02T18:37:18.202Z,2.10
2022-09-02T18:40:09.202Z,2.10
2022-09-02T18:42:58.212Z,1.83
2022-09-02T18:45:42.531Z,2.10
2022-09-02T18:48:20.606Z,2.38
2022-09-02T18:50:59.616Z,2.33
2022-09-02T18:53:38.240Z,2.40
2022-09-02T18:56:16.432Z,1.70
2022-09-02T18:58:59.334Z,1.70
2022-09-02T19:01:37.151Z,2.20
2022-09-02T19:04:13.829Z,2.10
2022-09-02T19:06:50.071Z,1.70
2022-09-02T19:09:28.523Z,1.70
2022-09-02T19:12:07.751Z,1.88
2022-09-02T19:14:46.726Z,1.80
2022-09-02T19:17:22.334Z,1.83
2022-09-02T19:19:57.736Z,1.75
2022-09-02T19:22:33.862Z,1.92
2022-09-02T19:25:15.148Z,1.85
2022-09-02T19:27:52.495Z,1.60
2022-09-02T19:30:40.419Z,1.80
2022-09-02T19:33:19.851Z,1.73
2022-09-02T19:35:56.827Z,1.60
2022-09-02T19:38:33.005Z,1.63
2022-09-02T19:41:12.221Z,1.67
2022-09-02T19:43:47.874Z,1.90
2022-09-02T19:49:20.716Z,1.90
2022-09-02T19:51:56.055Z,1.83
2022-09-02T19:54:31.194Z,1.80
2022-09-02T19:57:06.650Z,2.20
2022-09-02T19:59:41.965Z,1.70
2022-09-02T20:02:20.597Z,1.95
2022-09-02T20:04:59.476Z,1.60
2022-09-02T20:07:37.883Z,1.85
2022-09-02T20:10:13.987Z,2.10
2022-09-02T20:12:49.914Z,1.67
2022-09-02T20:15:28.579Z,2.20
2022-09-02T20:18:13.969Z,1.90
2022-09-02T20:20:50.691Z,1.40
2022-09-02T20:23:27.897Z,1.63
2022-09-02T20:26:30.751Z,1.60
2022-09-02T20:29:26.882Z,1.30
2022-09-02T20:32:15.924Z,1.65
2022-09-02T20:35:07.633Z,1.63
2022-09-02T20:37:53.530Z,1.92
2022-09-02T20:40:36.963Z,1.42
2022-09-02T20:43:57.000Z,1.95
2022-09-02T20:47:16.778Z,1.50
2022-09-02T20:50:12.706Z,1.60
2022-09-02T20:52:59.056Z,1.60
2022-09-02T20:55:39.951Z,1.33
2022-09-02T20:58:32.471Z,1.40
2022-09-02T21:01:11.812Z,1.80
2022-09-02T21:03:56.134Z,1.20
2022-09-02T21:06:38.907Z,1.40
2022-09-02T21:09:23.902Z,1.90
2022-09-02T21:12:04.529Z,1.60
2022-09-02T21:14:47.762Z,1.60
2022-09-02T21:17:31.538Z,1.20
2022-09-02T21:20:16.464Z,1.30
2022-09-02T21:23:00.006Z,1.10
2022-09-02T21:25:58.480Z,1.30
2022-09-02T21:28:40.789Z,1.25
2022-09-02T21:31:26.951Z,1.40
2022-09-02T21:34:09.612Z,1.38
2022-09-02T21:36:45.678Z,1.65
2022-09-02T21:39:23.623Z,1.15
2022-09-02T21:42:10.925Z,1.40
2022-09-02T21:44:59.058Z,1.30
2022-09-02T21:47:41.363Z,1.17
2022-09-02T21:50:24.349Z,1.38
2022-09-02T21:53:14.704Z,1.40
2022-09-02T21:56:05.929Z,1.60
2022-09-02T21:59:06.641Z,1.10
2022-09-02T22:01:48.652Z,1.33
2022-09-02T22:04:43.289Z,1.45
2022-09-02T22:07:24.190Z,1.67
2022-09-02T22:10:12.854Z,1.27
2022-09-02T22:12:54.112Z,1.30
2022-09-02T22:15:39.261Z,1.40
2022-09-02T22:18:22.815Z,1.25
2022-09-02T22:21:04.200Z,1.67
2022-09-02T22:23:41.732Z,1.25
2022-09-02T22:26:29.304Z,1.17
2022-09-02T22:29:09.788Z,1.23
2022-09-02T22:31:48.620Z,1.20
2022-09-02T22:34:28.383Z,1.30
2022-09-02T22:37:08.536Z,1.00
2022-09-02T22:39:52.235Z,1.20
2022-09-02T22:42:37.682Z,1.20
2022-09-02T22:45:46.014Z,0.90
2022-09-02T22:48:41.205Z,1.00
2022-09-02T22:51:39.064Z,0.90
2022-09-02T22:54:14.607Z,1.27
2022-09-02T22:56:58.560Z,1.13
2022-09-02T22:59:51.485Z,1.10
2022-09-02T23:05:46.866Z,1.15
2022-09-02T23:08:24.297Z,1.23
2022-09-02T23:11:08.899Z,1.55
2022-09-02T23:14:00.648Z,1.70
2022-09-02T23:16:49.065Z,1.88
2022-09-02T23:19:38.247Z,2.00
2022-09-02T23:22:21.711Z,2.03
2022-09-02T23:25:06.084Z,2.28
2022-09-02T23:27:56.825Z,1.90
2022-09-02T23:30:34.018Z,2.22
2022-09-02T23:33:44.707Z,2.42
2022-09-02T23:36:39.908Z,2.03
2022-09-02T23:40:15.371Z,1.80
2022-09-02T23:42:55.879Z,1.80
2022-09-02T23:45:40.845Z,1.83
2022-09-02T23:51:52.704Z,1.63
2022-09-02T23:55:08.965Z,1.95
2022-09-02T23:58:31.661Z,1.83
